Time,TemperatureF,DewpointF,PressureIn,WindDirection,WindDirectionDegrees,WindSpeedMPH,WindSpeedGustMPH,Humidity,HourlyPrecipIn,Conditions,Clouds,dailyrainin,SoftwareType,DateUTC
2013-01-11 00:03:00,49.6,49.6,30.41,NW,311,11.9,17.0,100,0.00,,,-99.99,VWS V12.07,2013-01-11 05:03:00,
2013-01-11 00:08:00,49.7,49.7,30.41,SW,229,9.3,19.2,100,0.00,,,-99.99,VWS V12.07,2013-01-11 05:08:00,
2013-01-11 00:13:00,49.7,49.7,30.41,WNW,298,5.5,19.2,100,0.00,,,-99.99,VWS V12.07,2013-01-11 05:13:00,
2013-01-11 00:18:00,49.6,49.6,30.41,West,273,8.5,8.5,100,0.00,,,-99.99,VWS V12.07,2013-01-11 05:18:00,
2013-01-11 00:23:00,49.5,49.5,30.41,SE,143,6.6,24.0,100,0.00,,,-99.99,VWS V12.07,2013-01-11 05:23:00,
2013-01-11 00:28:00,49.6,49.6,30.41,ESE,115,3.0,24.0,100,0.00,,,-99.99,VWS V12.07,2013-01-11 05:28:00,
2013-01-11 00:33:00,49.7,49.7,30.40,WNW,301,6.6,24.0,100,0.00,,,-99.99,VWS V12.07,2013-01-11 05:33:00,
2013-01-11 00:38:00,49.7,49.7,30.40,West,269,0.0,4.5,100,0.00,,,-99.99,VWS V12.07,2013-01-11 05:38:00,
2013-01-11 00:43:00,49.6,49.6,30.39,North,359,0.0,13.4,100,0.00,,,-99.99,VWS V12.07,2013-01-11 05:43:00,
2013-01-11 00:48:00,49.6,49.6,30.39,West,270,8.1,16.5,100,0.00,,,-99.99,VWS V12.07,2013-01-11 05:48:00,
2013-01-11 00:53:00,49.8,49.8,30.39,NW,307,6.9,16.5,100,0.00,,,-99.99,VWS V12.07,2013-01-11 05:53:00,
2013-01-11 00:58:00,49.6,49.6,30.39,NW,316,7.8,9.9,100,0.00,,,-99.99,VWS V12.07,2013-01-11 05:58:00,
2013-01-11 01:03:00,49.7,49.7,30.39,WSW,255,4.7,11.4,100,0.00,,,-99.99,VWS V12.07,2013-01-11 06:03:00,
2013-01-11 01:08:00,49.6,49.6,30.39,WNW,291,9.6,16.2,100,0.00,,,-99.99,VWS V12.07,2013-01-11 06:08:00,
2013-01-11 01:13:00,49.4,49.4,30.38,WSW,257,7.0,23.2,100,0.00,,,-99.99,VWS V12.07,2013-01-11 06:13:00,
2013-01-11 01:18:00,49.5,49.5,30.37,WNW,291,10.5,10.5,100,0.00,,,-99.99,VWS V12.07,2013-01-11 06:18:00,
2013-01-11 01:23:00,49.4,49.4,30.37,WNW,285,12.3,23.8,100,0.00,,,-99.99,VWS V12.07,2013-01-11 06:23:00,
2013-01-11 01:28:00,49.5,49.5,30.36,WSW,252,8.3,23.8,100,0.00,,,-99.99,VWS V12.07,2013-01-11 06:28:00,
2013-01-11 01:33:00,49.5,49.5,30.36,West,259,9.5,23.8,100,0.00,,,-99.99,VWS V12.07,2013-01-11 06:33:00,
2013-01-11 01:38:00,49.7,49.7,30.36,WNW,294,16.4,16.9,100,0.00,,,-99.99,VWS V12.07,2013-01-11 06:38:00,
2013-01-11 01:43:00,49.7,49.7,30.37,NW,307,8.6,20.0,100,0.00,,,-99.99,VWS V12.07,2013-01-11 06:43:00,
2013-01-11 01:48:00,50.0,50.0,30.37,SW,231,9.4,20.0,100,0.00,,,-99.99,VWS V12.07,2013-01-11 06:48:00,
2013-01-11 01:53:00,49.9,49.9,30.36,West,269,16.8,22.9,100,0.00,,,-99.99,VWS V12.07,2013-01-11 06:53:00,
2013-01-11 01:58:00,50.1,50.1,30.36,West,270,10.3,10.3,100,0.00,,,-99.99,VWS V12.07,2013-01-11 06:58:00,
2013-01-11 02:03:00,50.0,50.0,30.35,West,264,10.1,18.7,100,0.00,,,-99.99,VWS V12.07,2013-01-11 07:03:00,
2013-01-11 02:08:00,50.0,50.0,30.35,WSW,240,12.5,22.6,100,0.00,,,-99.99,VWS V12.07,2013-01-11 07:08:00,
2013-01-11 02:13:00,50.4,50.4,30.34,WSW,249,8.0,29.6,100,0.00,,,-99.99,VWS V12.07,2013-01-11 07:13:00,
2013-01-11 02:18:00,50.4,50.4,30.35,NW,305,11.5,11.5,100,0.00,,,-99.99,VWS V12.07,2013-01-11 07:18:00,
2013-01-11 02:23:00,50.7,50.7,30.35,WNW,288,10.4,19.3,100,0.00,,,-99.99,VWS V12.07,2013-01-11 07:23:00,
2013-01-11 02:28:00,50.9,50.9,30.35,WNW,294,8.9,21.2,100,0.00,,,-99.99,VWS V12.07,2013-01-11 07:28:00,
2013-01-11 02:33:00,51.0,51.0,30.36,West,274,14.2,21.2,100,0.00,,,-99.99,VWS V12.07,2013-01-11 07:33:00,
2013-01-11 02:38:00,51.1,51.1,30.36,WSW,252,19.3,21.7,100,0.00,,,-99.99,VWS V12.07,2013-01-11 07:38:00,
2013-01-11 02:43:00,51.0,51.0,30.36,West,266,12.8,21.7,100,0.00,,,-99.99,VWS V12.07,2013-01-11 07:43:00,
2013-01-11 02:48:00,51.0,51.0,30.36,WNW,287,13.5,28.1,100,0.00,,,-99.99,VWS V12.07,2013-01-11 07:48:00,
2013-01-11 02:53:00,51.1,51.1,30.35,SW,236,9.4,28.1,100,0.00,,,-99.99,VWS V12.07,2013-01-11 07:53:00,
2013-01-11 02:58:00,51.1,51.1,30.35,SSW,210,12.6,12.6,100,0.00,,,-99.99,VWS V12.07,2013-01-11 07:58:00,
2013-01-11 03:03:00,51.0,51.0,30.35,West,259,12.0,19.0,100,0.00,,,-99.99,VWS V12.07,2013-01-11 08:03:00,
2013-01-11 03:08:00,51.0,51.0,30.35,West,274,5.9,19.0,100,0.00,,,-99.99,VWS V12.07,2013-01-11 08:08:00,
2013-01-11 03:13:00,51.3,51.3,30.37,West,260,5.5,19.0,100,0.00,,,-99.99,VWS V12.07,2013-01-11 08:13:00,
2013-01-11 03:18:00,51.3,51.3,30.37,West,267,11.2,11.2,100,0.00,,,-99.99,VWS V12.07,2013-01-11 08:18:00,
2013-01-11 03:23:00,51.3,51.3,30.36,West,264,10.9,16.8,100,0.00,,,-99.99,VWS V12.07,2013-01-11 08:23:00,
2013-01-11 03:28:00,51.3,51.3,30.36,WNW,290,5.9,16.8,100,0.00,,,-99.99,VWS V12.07,2013-01-11 08:28:00,
2013-01-11 03:33:00,51.5,51.5,30.36,West,277,11.1,18.4,100,0.00,,,-99.99,VWS V12.07,2013-01-11 08:33:00,
2013-01-11 03:38:00,51.4,51.4,30.36,WSW,252,5.8,8.4,100,0.00,,,-99.99,VWS V12.07,2013-01-11 08:38:00,
2013-01-11 03:43:00,51.4,51.4,30.36,NW,326,7.5,13.3,100,0.00,,,-99.99,VWS V12.07,2013-01-11 08:43:00,
2013-01-11 03:48:00,51.9,51.9,30.36,NW,319,0.0,15.7,100,0.00,,,-99.99,VWS V12.07,2013-01-11 08:48:00,
2013-01-11 03:53:00,51.8,51.8,30.35,WNW,288,7.5,15.7,100,0.00,,,-99.99,VWS V12.07,2013-01-11 08:53:00,
2013-01-11 03:58:00,52.0,52.0,30.35,WNW,284,7.5,8.7,100,0.00,,,-99.99,VWS V12.07,2013-01-11 08:58:00,
2013-01-11 04:03:00,52.0,52.0,30.35,SSW,194,9.8,11.8,100,0.00,,,-99.99,VWS V12.07,2013-01-11 09:03:00,
2013-01-11 04:08:00,52.1,52.1,30.35,WNW,302,6.4,16.8,100,0.00,,,-99.99,VWS V12.07,2013-01-11 09:08:00,
2013-01-11 04:13:00,52.1,52.1,30.34,WSW,257,7.5,16.8,100,0.00,,,-99.99,VWS V12.07,2013-01-11 09:13:00,
2013-01-11 04:18:00,52.2,52.2,30.34,SW,215,0.0,0.0,100,0.00,,,-99.99,VWS V12.07,2013-01-11 09:18:00,
2013-01-11 04:23:00,52.2,52.2,30.33,WNW,287,13.0,17.3,100,0.00,,,-99.99,VWS V12.07,2013-01-11 09:23:00,
2013-01-11 04:28:00,52.3,52.3,30.33,NW,309,10.6,17.3,100,0.00,,,-99.99,VWS V12.07,2013-01-11 09:28:00,
2013-01-11 04:33:00,52.3,52.3,30.33,West,281,5.7,22.0,100,0.00,,,-99.99,VWS V12.07,2013-01-11 09:33:00,
2013-01-11 04:38:00,52.4,52.4,30.33,WSW,249,9.9,12.4,100,0.00,,,-99.99,VWS V12.07,2013-01-11 09:38:00,
2013-01-11 04:43:00,52.4,52.4,30.33,West,259,5.3,18.9,100,0.00,,,-99.99,VWS V12.07,2013-01-11 09:43:00,
2013-01-11 04:48:00,52.5,52.5,30.32,West,270,5.8,19.1,100,0.00,,,-99.99,VWS V12.07,2013-01-11 09:48:00,
2013-01-11 04:53:00,52.4,52.4,30.32,West,273,6.5,19.3,100,0.00,,,-99.99,VWS V12.07,2013-01-11 09:53:00,
2013-01-11 04:58:00,52.3,52.3,30.31,West,269,3.2,5.6,100,0.00,,,-99.99,VWS V12.07,2013-01-11 09:58:00,
2013-01-11 05:03:00,52.4,52.4,30.31,North,1,0.0,16.6,100,0.00,,,-99.99,VWS V12.07,2013-01-11 10:03:00,
2013-01-11 05:08:00,52.3,52.3,30.31,West,262,7.0,17.5,100,0.00,,,-99.99,VWS V12.07,2013-01-11 10:08:00,
2013-01-11 05:13:00,52.4,52.4,30.30,WNW,284,10.4,17.5,100,0.00,,,-99.99,VWS V12.07,2013-01-11 10:13:00,
2013-01-11 05:18:00,52.3,52.3,30.30,WNW,287,7.5,8.7,100,0.00,,,-99.99,VWS V12.07,2013-01-11 10:18:00,
2013-01-11 05:23:00,52.3,52.3,30.30,West,264,0.0,12.7,100,0.00,,,-99.99,VWS V12.07,2013-01-11 10:23:00,
2013-01-11 05:28:00,52.3,52.3,30.30,WNW,287,8.2,15.8,100,0.00,,,-99.99,VWS V12.07,2013-01-11 10:28:00,
2013-01-11 05:33:00,52.3,52.3,30.31,West,264,12.7,15.8,100,0.00,,,-99.99,VWS V12.07,2013-01-11 10:33:00,
2013-01-11 05:38:00,52.4,52.4,30.31,SW,229,3.3,4.4,100,0.00,,,-99.99,VWS V12.07,2013-01-11 10:38:00,
2013-01-11 05:43:00,52.4,52.4,30.32,SW,231,3.5,13.7,100,0.00,,,-99.99,VWS V12.07,2013-01-11 10:43:00,
2013-01-11 05:48:00,52.6,52.6,30.32,WNW,287,8.1,13.9,100,0.00,,,-99.99,VWS V12.07,2013-01-11 10:48:00,
2013-01-11 05:53:00,52.5,52.5,30.32,WSW,256,6.8,14.7,100,0.00,,,-99.99,VWS V12.07,2013-01-11 10:53:00,
2013-01-11 05:58:00,52.8,52.8,30.32,SW,235,5.4,5.9,100,0.00,,,-99.99,VWS V12.07,2013-01-11 10:58:00,
2013-01-11 06:03:00,52.8,52.8,30.32,West,277,0.0,13.0,100,0.00,,,-99.99,VWS V12.07,2013-01-11 11:03:00,
2013-01-11 06:08:00,52.9,52.9,30.32,South,190,0.0,13.9,100,0.00,,,-99.99,VWS V12.07,2013-01-11 11:08:00,
2013-01-11 06:13:00,52.9,52.9,30.32,West,263,0.0,13.9,100,0.00,,,-99.99,VWS V12.07,2013-01-11 11:13:00,
2013-01-11 06:18:00,53.0,53.0,30.31,WSW,246,4.7,6.8,100,0.00,,,-99.99,VWS V12.07,2013-01-11 11:18:00,
2013-01-11 06:23:00,53.0,53.0,30.31,SW,217,5.2,11.1,100,0.00,,,-99.99,VWS V12.07,2013-01-11 11:23:00,
2013-01-11 06:28:00,53.0,53.0,30.31,SSW,198,0.0,13.9,100,0.00,,,-99.99,VWS V12.07,2013-01-11 11:28:00,
2013-01-11 06:33:00,53.1,53.1,30.31,WSW,255,0.0,13.9,100,0.00,,,-99.99,VWS V12.07,2013-01-11 11:33:00,
2013-01-11 06:38:00,52.9,52.9,30.31,NW,304,0.0,0.0,100,0.00,,,-99.99,VWS V12.07,2013-01-11 11:38:00,
2013-01-11 06:43:00,53.1,53.1,30.31,West,262,4.5,17.3,100,0.00,,,-99.99,VWS V12.07,2013-01-11 11:43:00,
2013-01-11 06:48:00,53.0,53.0,30.31,SSW,201,0.0,17.3,100,0.00,,,-99.99,VWS V12.07,2013-01-11 11:48:00,
2013-01-11 06:53:00,53.0,53.0,30.31,NW,307,4.8,17.9,100,0.00,,,-99.99,VWS V12.07,2013-01-11 11:53:00,
2013-01-11 06:58:00,53.0,53.0,30.31,West,270,10.5,10.5,100,0.00,,,-99.99,VWS V12.07,2013-01-11 11:58:00,
2013-01-11 07:03:00,53.1,53.1,30.31,SE,131,0.0,26.8,100,0.00,,,-99.99,VWS V12.07,2013-01-11 12:03:00,
2013-01-11 07:08:00,53.2,53.2,30.31,WNW,291,13.0,26.8,100,0.00,,,-99.99,VWS V12.07,2013-01-11 12:08:00,
2013-01-11 07:13:00,53.2,53.2,30.31,South,186,0.0,26.8,100,0.00,,,-99.99,VWS V12.07,2013-01-11 12:13:00,
2013-01-11 07:18:00,53.3,53.3,30.31,West,281,8.7,8.7,100,0.00,,,-99.99,VWS V12.07,2013-01-11 12:18:00,
2013-01-11 07:23:00,53.3,53.3,30.32,West,273,7.0,15.2,100,0.00,,,-99.99,VWS V12.07,2013-01-11 12:23:00,
2013-01-11 07:28:00,53.4,53.4,30.32,WNW,283,5.9,16.1,100,0.00,,,-99.99,VWS V12.07,2013-01-11 12:28:00,
2013-01-11 07:33:00,53.4,53.4,30.33,South,170,8.8,16.1,100,0.00,,,-99.99,VWS V12.07,2013-01-11 12:33:00,
2013-01-11 07:38:00,53.4,53.4,30.33,West,277,11.9,11.9,100,0.00,,,-99.99,VWS V12.07,2013-01-11 12:38:00,
2013-01-11 07:43:00,53.3,53.3,30.33,South,186,0.0,13.8,100,0.00,,,-99.99,VWS V12.07,2013-01-11 12:43:00,
2013-01-11 07:48:00,53.3,53.3,30.33,WSW,238,0.0,13.8,100,0.00,,,-99.99,VWS V12.07,2013-01-11 12:48:00,
2013-01-11 07:53:00,53.2,53.2,30.33,WSW,246,0.0,13.8,100,0.00,,,-99.99,VWS V12.07,2013-01-11 12:53:00,
2013-01-11 07:58:00,53.2,53.2,30.33,West,276,4.7,4.8,100,0.00,,,-99.99,VWS V12.07,2013-01-11 12:58:00,
2013-01-11 08:03:00,53.0,53.0,30.34,West,267,0.0,13.5,100,0.00,,,-99.99,VWS V12.07,2013-01-11 13:03:00,
2013-01-11 08:08:00,53.1,53.1,30.34,WNW,292,0.0,13.5,100,0.00,,,-99.99,VWS V12.07,2013-01-11 13:08:00,
2013-01-11 08:13:00,52.9,52.9,30.35,West,280,7.1,13.5,100,0.00,,,-99.99,VWS V12.07,2013-01-11 13:13:00,
2013-01-11 08:18:00,52.9,52.9,30.34,West,273,6.2,6.6,100,0.00,,,-99.99,VWS V12.07,2013-01-11 13:18:00,
2013-01-11 08:23:00,52.9,52.9,30.34,SSW,194,0.0,10.1,100,0.00,,,-99.99,VWS V12.07,2013-01-11 13:23:00,
2013-01-11 08:28:00,52.9,52.9,30.34,SSW,211,0.0,10.1,100,0.00,,,-99.99,VWS V12.07,2013-01-11 13:28:00,
2013-01-11 08:33:00,52.9,52.9,30.35,NW,304,10.9,12.2,100,0.00,,,-99.99,VWS V12.07,2013-01-11 13:33:00,
2013-01-11 08:43:00,52.9,52.9,30.35,West,278,0.0,10.4,100,0.00,,,-99.99,VWS V12.07,2013-01-11 13:43:00,
2013-01-11 08:48:00,53.0,53.0,30.35,SSW,198,3.4,14.0,100,0.00,,,-99.99,VWS V12.07,2013-01-11 13:48:00,
2013-01-11 08:53:00,52.9,52.9,30.35,SW,218,0.0,14.0,100,0.00,,,-99.99,VWS V12.07,2013-01-11 13:53:00,
2013-01-11 08:58:00,53.0,53.0,30.36,SW,217,0.0,0.0,100,0.00,,,-99.99,VWS V12.07,2013-01-11 13:58:00,
2013-01-11 09:03:00,52.9,52.9,30.36,WNW,298,15.5,16.0,100,0.00,,,-99.99,VWS V12.07,2013-01-11 14:03:00,
2013-01-11 09:08:00,53.0,53.0,30.36,West,277,5.1,16.0,100,0.00,,,-99.99,VWS V12.07,2013-01-11 14:08:00,
2013-01-11 09:13:00,52.9,52.9,30.36,West,280,4.8,16.0,100,0.00,,,-99.99,VWS V12.07,2013-01-11 14:13:00,
2013-01-11 09:18:00,53.0,53.0,30.36,West,263,8.3,9.9,100,0.00,,,-99.99,VWS V12.07,2013-01-11 14:18:00,
2013-01-11 09:23:00,52.9,52.9,30.36,SW,232,0.0,13.1,100,0.00,,,-99.99,VWS V12.07,2013-01-11 14:23:00,
2013-01-11 09:28:00,53.0,53.0,30.36,West,274,7.3,13.1,100,0.00,,,-99.99,VWS V12.07,2013-01-11 14:28:00,
2013-01-11 09:33:00,52.9,52.9,30.35,SW,233,0.0,13.1,100,0.00,,,-99.99,VWS V12.07,2013-01-11 14:33:00,
2013-01-11 09:38:00,53.0,53.0,30.36,WSW,252,5.4,5.7,100,0.00,,,-99.99,VWS V12.07,2013-01-11 14:38:00,
2013-01-11 09:43:00,52.9,52.9,30.36,SW,233,0.0,10.4,100,0.00,,,-99.99,VWS V12.07,2013-01-11 14:43:00,
2013-01-11 09:48:00,52.9,52.9,30.36,WNW,284,6.3,10.4,100,0.00,,,-99.99,VWS V12.07,2013-01-11 14:48:00,
2013-01-11 09:53:00,52.9,52.9,30.35,WNW,292,9.9,17.3,100,0.00,,,-99.99,VWS V12.07,2013-01-11 14:53:00,
2013-01-11 09:58:00,52.9,52.9,30.36,SW,218,0.0,0.0,100,0.00,,,-99.99,VWS V12.07,2013-01-11 14:58:00,
2013-01-11 10:03:00,53.0,53.0,30.35,West,266,0.0,8.6,100,0.00,,,-99.99,VWS V12.07,2013-01-11 15:03:00,
2013-01-11 10:08:00,52.8,52.8,30.35,WNW,301,7.0,12.1,100,0.00,,,-99.99,VWS V12.07,2013-01-11 15:08:00,
2013-01-11 10:13:00,53.1,53.1,30.35,West,260,6.0,14.7,100,0.00,,,-99.99,VWS V12.07,2013-01-11 15:13:00,
2013-01-11 10:18:00,53.3,53.3,30.35,West,260,0.0,0.0,100,0.00,,,-99.99,VWS V12.07,2013-01-11 15:18:00,
2013-01-11 10:23:00,53.2,53.2,30.35,WSW,257,3.2,10.1,100,0.00,,,-99.99,VWS V12.07,2013-01-11 15:23:00,
2013-01-11 10:28:00,53.2,53.2,30.35,WSW,245,0.0,10.1,100,0.00,,,-99.99,VWS V12.07,2013-01-11 15:28:00,
2013-01-11 10:33:00,53.2,53.2,30.35,SW,214,0.0,11.0,100,0.00,,,-99.99,VWS V12.07,2013-01-11 15:33:00,
2013-01-11 10:38:00,53.3,53.3,30.35,SW,214,0.0,0.0,100,0.00,,,-99.99,VWS V12.07,2013-01-11 15:38:00,
2013-01-11 10:43:00,53.2,53.2,30.34,WNW,290,13.0,16.4,100,0.00,,,-99.99,VWS V12.07,2013-01-11 15:43:00,
2013-01-11 10:48:00,53.5,53.5,30.34,West,277,8.0,16.4,100,0.00,,,-99.99,VWS V12.07,2013-01-11 15:48:00,
2013-01-11 10:53:00,53.6,53.6,30.34,SW,221,0.0,16.4,100,0.00,,,-99.99,VWS V12.07,2013-01-11 15:53:00,
2013-01-11 10:58:00,53.5,53.5,30.33,SSW,211,0.0,3.0,100,0.00,,,-99.99,VWS V12.07,2013-01-11 15:58:00,
2013-01-11 11:03:00,53.7,53.7,30.33,WSW,246,6.6,15.0,100,0.00,,,-99.99,VWS V12.07,2013-01-11 16:03:00,
2013-01-11 11:08:00,53.8,53.8,30.33,West,262,4.4,15.0,100,0.00,,,-99.99,VWS V12.07,2013-01-11 16:08:00,
2013-01-11 11:13:00,54.0,54.0,30.32,WSW,252,6.6,15.0,100,0.00,,,-99.99,VWS V12.07,2013-01-11 16:13:00,
2013-01-11 11:18:00,54.4,54.4,30.32,SW,236,3.4,5.8,100,0.00,,,-99.99,VWS V12.07,2013-01-11 16:18:00,
2013-01-11 11:23:00,54.6,54.6,30.32,WSW,242,0.0,16.2,100,0.00,,,-99.99,VWS V12.07,2013-01-11 16:23:00,
2013-01-11 11:28:00,54.7,54.7,30.32,SW,233,0.0,16.2,100,0.00,,,-99.99,VWS V12.07,2013-01-11 16:28:00,
2013-01-11 11:33:00,54.9,54.9,30.31,West,274,9.8,16.7,100,0.00,,,-99.99,VWS V12.07,2013-01-11 16:33:00,
2013-01-11 11:38:00,55.0,55.0,30.31,WNW,297,8.7,8.7,100,0.00,,,-99.99,VWS V12.07,2013-01-11 16:38:00,
2013-01-11 11:43:00,55.2,55.2,30.31,West,266,4.3,13.5,100,0.00,,,-99.99,VWS V12.07,2013-01-11 16:43:00,
2013-01-11 11:48:00,55.3,55.3,30.31,SSW,205,7.0,16.3,100,0.00,,,-99.99,VWS V12.07,2013-01-11 16:48:00,
2013-01-11 11:53:00,55.2,55.2,30.31,WSW,255,9.5,17.4,100,0.00,,,-99.99,VWS V12.07,2013-01-11 16:53:00,
2013-01-11 11:58:00,55.3,55.3,30.31,WSW,248,5.5,5.6,100,0.00,,,-99.99,VWS V12.07,2013-01-11 16:58:00,
2013-01-11 12:03:00,55.4,55.4,30.30,West,273,7.3,18.0,100,0.00,,,-99.99,VWS V12.07,2013-01-11 17:03:00,
2013-01-11 12:08:00,55.4,55.4,30.31,WSW,240,3.2,18.0,100,0.00,,,-99.99,VWS V12.07,2013-01-11 17:08:00,
2013-01-11 12:13:00,55.3,55.3,30.30,West,264,6.3,18.6,100,0.00,,,-99.99,VWS V12.07,2013-01-11 17:13:00,
2013-01-11 12:18:00,55.4,55.4,30.29,West,263,0.0,0.0,100,0.00,,,-99.99,VWS V12.07,2013-01-11 17:18:00,
2013-01-11 12:23:00,55.5,55.5,30.29,WSW,250,5.8,10.7,100,0.00,,,-99.99,VWS V12.07,2013-01-11 17:23:00,
2013-01-11 12:28:00,55.5,55.5,30.29,West,262,5.7,11.7,100,0.00,,,-99.99,VWS V12.07,2013-01-11 17:28:00,
2013-01-11 12:33:00,55.5,55.5,30.29,WSW,253,3.4,16.4,100,0.00,,,-99.99,VWS V12.07,2013-01-11 17:33:00,
2013-01-11 12:38:00,55.4,55.4,30.29,WSW,256,7.0,7.0,100,0.00,,,-99.99,VWS V12.07,2013-01-11 17:38:00,
2013-01-11 12:43:00,55.4,55.4,30.29,SW,233,0.0,16.1,100,0.00,,,-99.99,VWS V12.07,2013-01-11 17:43:00,
2013-01-11 12:48:00,55.4,55.4,30.29,West,271,8.9,16.1,100,0.00,,,-99.99,VWS V12.07,2013-01-11 17:48:00,
2013-01-11 12:53:00,55.4,55.4,30.28,West,278,14.0,18.6,100,0.00,,,-99.99,VWS V12.07,2013-01-11 17:53:00,
2013-01-11 12:58:00,55.3,55.3,30.28,SW,217,0.0,3.3,100,0.00,,,-99.99,VWS V12.07,2013-01-11 17:58:00,
2013-01-11 13:03:00,55.4,55.4,30.28,West,266,7.0,12.6,100,0.00,,,-99.99,VWS V12.07,2013-01-11 18:03:00,
2013-01-11 13:08:00,55.4,55.4,30.28,WSW,257,5.2,14.6,100,0.00,,,-99.99,VWS V12.07,2013-01-11 18:08:00,
2013-01-11 13:13:00,55.4,55.4,30.28,West,262,0.0,17.0,100,0.00,,,-99.99,VWS V12.07,2013-01-11 18:13:00,
2013-01-11 13:18:00,55.4,55.4,30.28,West,262,6.3,8.2,100,0.00,,,-99.99,VWS V12.07,2013-01-11 18:18:00,
2013-01-11 13:23:00,55.5,55.5,30.28,WNW,291,11.1,15.5,100,0.00,,,-99.99,VWS V12.07,2013-01-11 18:23:00,
2013-01-11 13:28:00,55.5,55.5,30.28,NW,314,8.9,15.5,100,0.00,,,-99.99,VWS V12.07,2013-01-11 18:28:00,
2013-01-11 13:33:00,55.4,55.4,30.28,West,259,18.6,18.8,100,0.00,,,-99.99,VWS V12.07,2013-01-11 18:33:00,
2013-01-11 13:38:00,55.5,55.5,30.28,WNW,302,0.0,0.0,100,0.00,,,-99.99,VWS V12.07,2013-01-11 18:38:00,
2013-01-11 13:43:00,55.5,55.5,30.28,WNW,292,6.5,13.1,100,0.00,,,-99.99,VWS V12.07,2013-01-11 18:43:00,
2013-01-11 13:48:00,55.5,55.5,30.28,WNW,284,8.8,15.8,100,0.00,,,-99.99,VWS V12.07,2013-01-11 18:48:00,
2013-01-11 13:53:00,55.4,55.4,30.28,SSW,205,0.0,15.8,100,0.00,,,-99.99,VWS V12.07,2013-01-11 18:53:00,
2013-01-11 13:58:00,55.4,55.4,30.28,West,276,0.0,0.0,100,0.00,,,-99.99,VWS V12.07,2013-01-11 18:58:00,
2013-01-11 14:03:00,55.4,55.4,30.28,West,281,0.0,13.0,100,0.00,,,-99.99,VWS V12.07,2013-01-11 19:03:00,
2013-01-11 14:08:00,55.5,55.5,30.28,NNW,336,0.0,19.9,100,0.00,,,-99.99,VWS V12.07,2013-01-11 19:08:00,
2013-01-11 14:13:00,55.5,55.5,30.28,WNW,283,13.0,23.9,100,0.00,,,-99.99,VWS V12.07,2013-01-11 19:13:00,
2013-01-11 14:18:00,55.6,55.6,30.28,West,278,10.6,10.7,100,0.00,,,-99.99,VWS V12.07,2013-01-11 19:18:00,
2013-01-11 14:23:00,55.7,55.7,30.28,West,270,15.2,17.1,100,0.00,,,-99.99,VWS V12.07,2013-01-11 19:23:00,
2013-01-11 14:28:00,55.8,55.8,30.28,WNW,284,8.8,17.1,100,0.00,,,-99.99,VWS V12.07,2013-01-11 19:28:00,
2013-01-11 14:33:00,55.8,55.8,30.28,West,278,0.0,17.1,100,0.00,,,-99.99,VWS V12.07,2013-01-11 19:33:00,
2013-01-11 14:38:00,55.9,55.9,30.28,SSW,210,4.1,7.1,100,0.00,,,-99.99,VWS V12.07,2013-01-11 19:38:00,
2013-01-11 14:43:00,56.0,56.0,30.28,WNW,284,13.7,18.0,100,0.00,,,-99.99,VWS V12.07,2013-01-11 19:43:00,
2013-01-11 14:48:00,56.1,56.1,30.28,West,270,6.5,18.1,100,0.00,,,-99.99,VWS V12.07,2013-01-11 19:48:00,
2013-01-11 14:53:00,56.1,56.1,30.28,West,269,11.8,18.9,100,0.00,,,-99.99,VWS V12.07,2013-01-11 19:53:00,
2013-01-11 14:58:00,56.3,56.3,30.27,West,274,10.9,11.6,100,0.00,,,-99.99,VWS V12.07,2013-01-11 19:58:00,
2013-01-11 15:03:00,56.5,56.5,30.27,West,271,12.1,15.0,100,0.00,,,-99.99,VWS V12.07,2013-01-11 20:03:00,
2013-01-11 15:08:00,56.7,56.7,30.27,West,278,0.0,17.1,100,0.00,,,-99.99,VWS V12.07,2013-01-11 20:08:00,
2013-01-11 15:13:00,56.9,56.9,30.28,West,273,0.0,17.2,100,0.00,,,-99.99,VWS V12.07,2013-01-11 20:13:00,
2013-01-11 15:23:00,57.2,57.2,30.27,West,267,7.7,16.5,100,0.00,,,-99.99,VWS V12.07,2013-01-11 20:23:00,
2013-01-11 15:28:00,57.3,57.3,30.27,WNW,287,11.2,16.6,100,0.00,,,-99.99,VWS V12.07,2013-01-11 20:28:00,
2013-01-11 15:33:00,57.4,57.4,30.27,WNW,285,9.8,18.6,100,0.00,,,-99.99,VWS V12.07,2013-01-11 20:33:00,
2013-01-11 15:38:00,57.6,57.6,30.28,WSW,250,9.8,9.9,100,0.00,,,-99.99,VWS V12.07,2013-01-11 20:38:00,
2013-01-11 15:43:00,57.7,57.7,30.28,WSW,246,7.3,12.2,100,0.00,,,-99.99,VWS V12.07,2013-01-11 20:43:00,
2013-01-11 15:48:00,57.8,57.8,30.28,WSW,246,6.2,15.4,100,0.00,,,-99.99,VWS V12.07,2013-01-11 20:48:00,
2013-01-11 15:53:00,57.9,57.9,30.28,West,263,9.0,16.9,100,0.00,,,-99.99,VWS V12.07,2013-01-11 20:53:00,
2013-01-11 15:58:00,58.0,58.0,30.28,WNW,283,9.6,11.1,100,0.00,,,-99.99,VWS V12.07,2013-01-11 20:58:00,
2013-01-11 16:03:00,58.0,58.0,30.27,WSW,255,7.1,15.8,100,0.00,,,-99.99,VWS V12.07,2013-01-11 21:03:00,
2013-01-11 16:08:00,58.0,58.0,30.28,West,263,9.8,15.8,100,0.00,,,-99.99,VWS V12.07,2013-01-11 21:08:00,
2013-01-11 16:13:00,58.0,58.0,30.27,West,266,11.0,18.8,100,0.00,,,-99.99,VWS V12.07,2013-01-11 21:13:00,
2013-01-11 16:18:00,58.0,58.0,30.27,WSW,257,9.3,9.3,100,0.00,,,-99.99,VWS V12.07,2013-01-11 21:18:00,
2013-01-11 16:23:00,58.0,58.0,30.27,West,271,7.5,16.5,100,0.00,,,-99.99,VWS V12.07,2013-01-11 21:23:00,
2013-01-11 16:28:00,58.0,58.0,30.27,West,266,8.5,16.5,100,0.00,,,-99.99,VWS V12.07,2013-01-11 21:28:00,
2013-01-11 16:33:00,58.0,58.0,30.27,West,274,9.1,16.5,100,0.00,,,-99.99,VWS V12.07,2013-01-11 21:33:00,
2013-01-11 16:38:00,58.0,58.0,30.26,West,266,7.1,8.1,100,0.00,,,-99.99,VWS V12.07,2013-01-11 21:38:00,
2013-01-11 16:43:00,58.0,58.0,30.27,West,277,6.7,11.1,100,0.00,,,-99.99,VWS V12.07,2013-01-11 21:43:00,
2013-01-11 16:48:00,58.0,58.0,30.27,West,271,7.0,15.5,100,0.00,,,-99.99,VWS V12.07,2013-01-11 21:48:00,
2013-01-11 16:53:00,58.0,58.0,30.27,West,273,8.4,15.5,100,0.00,,,-99.99,VWS V12.07,2013-01-11 21:53:00,
2013-01-11 16:58:00,57.9,57.9,30.27,WNW,284,6.8,7.0,100,0.00,,,-99.99,VWS V12.07,2013-01-11 21:58:00,
2013-01-11 17:03:00,57.9,57.9,30.27,West,262,8.8,14.0,100,0.00,,,-99.99,VWS V12.07,2013-01-11 22:03:00,
2013-01-11 17:08:00,57.8,57.8,30.28,West,266,9.8,19.4,100,0.00,,,-99.99,VWS V12.07,2013-01-11 22:08:00,
2013-01-11 17:13:00,57.7,57.7,30.28,West,277,8.9,19.4,100,0.00,,,-99.99,VWS V12.07,2013-01-11 22:13:00,
2013-01-11 17:18:00,57.7,57.7,30.28,West,260,9.1,10.6,100,0.00,,,-99.99,VWS V12.07,2013-01-11 22:18:00,
2013-01-11 17:23:00,57.7,57.7,30.28,WSW,257,9.2,18.0,100,0.00,,,-99.99,VWS V12.07,2013-01-11 22:23:00,
2013-01-11 17:28:00,57.6,57.6,30.28,West,263,9.6,18.0,100,0.00,,,-99.99,VWS V12.07,2013-01-11 22:28:00,
2013-01-11 17:33:00,57.6,57.6,30.28,West,264,11.4,22.7,100,0.00,,,-99.99,VWS V12.07,2013-01-11 22:33:00,
2013-01-11 17:38:00,57.5,57.5,30.28,West,263,11.3,11.3,100,0.00,,,-99.99,VWS V12.07,2013-01-11 22:38:00,
2013-01-11 17:43:00,57.4,57.4,30.29,West,266,7.7,20.8,100,0.00,,,-99.99,VWS V12.07,2013-01-11 22:43:00,
2013-01-11 17:48:00,57.4,57.4,30.29,West,276,7.3,20.8,100,0.00,,,-99.99,VWS V12.07,2013-01-11 22:48:00,
2013-01-11 17:53:00,57.4,57.4,30.29,West,273,6.9,20.8,100,0.00,,,-99.99,VWS V12.07,2013-01-11 22:53:00,
2013-01-11 17:58:00,57.3,57.3,30.29,West,269,7.1,8.2,100,0.00,,,-99.99,VWS V12.07,2013-01-11 22:58:00,
2013-01-11 18:03:00,57.1,57.1,30.29,West,267,0.0,9.0,100,0.00,,,-99.99,VWS V12.07,2013-01-11 23:03:00,
2013-01-11 18:08:00,57.1,57.1,30.29,West,267,0.0,9.0,100,0.00,,,-99.99,VWS V12.07,2013-01-11 23:08:00,
2013-01-11 18:13:00,57.0,57.0,30.29,West,259,6.7,14.0,100,0.00,,,-99.99,VWS V12.07,2013-01-11 23:13:00,
2013-01-11 18:18:00,57.0,57.0,30.30,West,269,7.7,7.8,100,0.00,,,-99.99,VWS V12.07,2013-01-11 23:18:00,
2013-01-11 18:23:00,56.9,56.9,30.30,WSW,256,5.4,10.6,100,0.00,,,-99.99,VWS V12.07,2013-01-11 23:23:00,
2013-01-11 18:28:00,56.9,56.9,30.31,West,260,7.8,10.6,100,0.00,,,-99.99,VWS V12.07,2013-01-11 23:28:00,
2013-01-11 18:33:00,56.9,56.9,30.31,West,259,0.0,10.6,100,0.00,,,-99.99,VWS V12.07,2013-01-11 23:33:00,
2013-01-11 18:38:00,56.9,56.9,30.31,West,266,8.6,10.1,100,0.00,,,-99.99,VWS V12.07,2013-01-11 23:38:00,
2013-01-11 18:43:00,56.9,56.9,30.31,West,264,10.3,19.9,100,0.00,,,-99.99,VWS V12.07,2013-01-11 23:43:00,
2013-01-11 18:48:00,57.0,57.0,30.31,WSW,252,0.0,19.9,100,0.00,,,-99.99,VWS V12.07,2013-01-11 23:48:00,
2013-01-11 18:53:00,57.0,57.0,30.31,West,269,8.4,19.9,100,0.00,,,-99.99,VWS V12.07,2013-01-11 23:53:00,
2013-01-11 18:58:00,57.1,57.1,30.31,West,264,5.5,7.0,100,0.00,,,-99.99,VWS V12.07,2013-01-11 23:58:00,
2013-01-11 19:03:00,57.0,57.0,30.31,WSW,255,7.5,8.8,100,0.00,,,-99.99,VWS V12.07,2013-01-12 00:03:00,
2013-01-11 19:08:00,57.1,57.1,30.31,West,270,7.1,8.8,100,0.00,,,-99.99,VWS V12.07,2013-01-12 00:08:00,
2013-01-11 19:13:00,57.0,57.0,30.31,West,263,0.0,11.7,100,0.00,,,-99.99,VWS V12.07,2013-01-12 00:13:00,
2013-01-11 19:18:00,57.0,57.0,30.31,WNW,285,6.7,7.8,100,0.00,,,-99.99,VWS V12.07,2013-01-12 00:18:00,
2013-01-11 19:23:00,57.0,57.0,30.32,West,270,0.0,8.9,100,0.00,,,-99.99,VWS V12.07,2013-01-12 00:23:00,
2013-01-11 19:28:00,57.0,57.0,30.31,West,270,0.0,8.9,100,0.00,,,-99.99,VWS V12.07,2013-01-12 00:28:00,
2013-01-11 19:33:00,57.0,57.0,30.31,West,270,0.0,8.9,100,0.00,,,-99.99,VWS V12.07,2013-01-12 00:33:00,
2013-01-11 19:38:00,57.0,57.0,30.31,West,270,0.0,0.0,100,0.00,,,-99.99,VWS V12.07,2013-01-12 00:38:00,
2013-01-11 19:43:00,57.0,57.0,30.31,West,274,4.2,13.5,100,0.00,,,-99.99,VWS V12.07,2013-01-12 00:43:00,
2013-01-11 19:48:00,57.0,57.0,30.31,WSW,257,0.0,13.5,100,0.00,,,-99.99,VWS V12.07,2013-01-12 00:48:00,
2013-01-11 19:53:00,57.1,57.1,30.31,West,264,0.0,13.5,100,0.00,,,-99.99,VWS V12.07,2013-01-12 00:53:00,
2013-01-11 19:58:00,57.0,57.0,30.31,West,264,0.0,0.0,100,0.00,,,-99.99,VWS V12.07,2013-01-12 00:58:00,
2013-01-11 20:03:00,57.1,57.1,30.31,West,264,0.0,0.0,100,0.00,,,-99.99,VWS V12.07,2013-01-12 01:03:00,
2013-01-11 20:08:00,57.1,57.1,30.31,West,264,0.0,0.0,100,0.00,,,-99.99,VWS V12.07,2013-01-12 01:08:00,
2013-01-11 20:13:00,57.1,57.1,30.31,WSW,250,6.0,12.8,100,0.00,,,-99.99,VWS V12.07,2013-01-12 01:13:00,
2013-01-11 20:18:00,57.2,57.2,30.31,WNW,287,0.0,0.0,100,0.00,,,-99.99,VWS V12.07,2013-01-12 01:18:00,
2013-01-11 20:23:00,57.4,57.4,30.31,WNW,291,6.5,12.7,100,0.00,,,-99.99,VWS V12.07,2013-01-12 01:23:00,
2013-01-11 20:28:00,57.7,57.7,30.31,West,281,6.4,17.6,100,0.00,,,-99.99,VWS V12.07,2013-01-12 01:28:00,
2013-01-11 20:33:00,57.9,57.9,30.31,WSW,257,8.7,17.6,100,0.00,,,-99.99,VWS V12.07,2013-01-12 01:33:00,
2013-01-11 20:38:00,57.8,57.8,30.31,West,273,8.7,10.4,100,0.00,,,-99.99,VWS V12.07,2013-01-12 01:38:00,
2013-01-11 20:43:00,57.7,57.7,30.31,West,277,0.0,10.4,100,0.00,,,-99.99,VWS V12.07,2013-01-12 01:43:00,
2013-01-11 20:48:00,57.6,57.6,30.31,WSW,249,0.0,12.1,100,0.00,,,-99.99,VWS V12.07,2013-01-12 01:48:00,
2013-01-11 20:53:00,57.4,57.4,30.31,West,280,0.0,12.1,100,0.00,,,-99.99,VWS V12.07,2013-01-12 01:53:00,
2013-01-11 20:58:00,57.3,57.3,30.31,West,276,7.1,8.3,100,0.00,,,-99.99,VWS V12.07,2013-01-12 01:58:00,
2013-01-11 21:03:00,57.2,57.2,30.31,WNW,294,0.0,8.3,100,0.00,,,-99.99,VWS V12.07,2013-01-12 02:03:00,
2013-01-11 21:08:00,57.2,57.2,30.31,WNW,284,0.0,8.3,100,0.00,,,-99.99,VWS V12.07,2013-01-12 02:08:00,
2013-01-11 21:13:00,57.0,57.0,30.31,West,270,3.0,12.7,100,0.00,,,-99.99,VWS V12.07,2013-01-12 02:13:00,
2013-01-11 21:18:00,56.9,56.9,30.31,WSW,255,0.0,0.0,100,0.00,,,-99.99,VWS V12.07,2013-01-12 02:18:00,
2013-01-11 21:23:00,56.8,56.8,30.32,West,270,5.3,9.9,100,0.00,,,-99.99,VWS V12.07,2013-01-12 02:23:00,
2013-01-11 21:28:00,56.9,56.9,30.32,West,263,0.0,9.9,100,0.00,,,-99.99,VWS V12.07,2013-01-12 02:28:00,
2013-01-11 21:33:00,56.8,56.8,30.32,WNW,287,0.0,9.9,100,0.00,,,-99.99,VWS V12.07,2013-01-12 02:33:00,
2013-01-11 21:38:00,56.8,56.8,30.32,West,280,0.0,0.0,100,0.00,,,-99.99,VWS V12.07,2013-01-12 02:38:00,
2013-01-11 21:43:00,56.8,56.8,30.32,West,280,0.0,0.0,100,0.00,,,-99.99,VWS V12.07,2013-01-12 02:43:00,
2013-01-11 21:48:00,56.7,56.7,30.32,West,280,0.0,0.0,100,0.00,,,-99.99,VWS V12.07,2013-01-12 02:48:00,
2013-01-11 21:53:00,56.6,56.6,30.31,West,280,0.0,0.0,100,0.00,,,-99.99,VWS V12.07,2013-01-12 02:53:00,
2013-01-11 21:58:00,56.6,56.6,30.32,West,280,0.0,0.0,100,0.00,,,-99.99,VWS V12.07,2013-01-12 02:58:00,
2013-01-11 22:03:00,56.6,56.6,30.32,West,280,0.0,0.0,100,0.00,,,-99.99,VWS V12.07,2013-01-12 03:03:00,
2013-01-11 22:08:00,56.6,56.6,30.32,West,280,0.0,0.0,100,0.00,,,-99.99,VWS V12.07,2013-01-12 03:08:00,
2013-01-11 22:13:00,56.5,56.5,30.33,WSW,253,4.3,12.1,100,0.00,,,-99.99,VWS V12.07,2013-01-12 03:13:00,
2013-01-11 22:18:00,56.5,56.5,30.32,WSW,256,0.0,0.0,100,0.00,,,-99.99,VWS V12.07,2013-01-12 03:18:00,
2013-01-11 22:23:00,56.6,56.6,30.32,WSW,252,5.7,12.6,100,0.00,,,-99.99,VWS V12.07,2013-01-12 03:23:00,
2013-01-11 22:28:00,56.6,56.6,30.32,WNW,285,6.0,12.6,100,0.00,,,-99.99,VWS V12.07,2013-01-12 03:28:00,
2013-01-11 22:33:00,56.6,56.6,30.32,SW,236,5.2,13.9,100,0.00,,,-99.99,VWS V12.07,2013-01-12 03:33:00,
2013-01-11 22:38:00,56.7,56.7,30.32,WNW,283,7.1,7.1,100,0.00,,,-99.99,VWS V12.07,2013-01-12 03:38:00,
2013-01-11 22:43:00,56.7,56.7,30.32,West,259,6.8,12.4,100,0.00,,,-99.99,VWS V12.07,2013-01-12 03:43:00,
2013-01-11 22:48:00,56.7,56.7,30.32,WNW,283,4.9,12.4,100,0.00,,,-99.99,VWS V12.07,2013-01-12 03:48:00,
2013-01-11 22:53:00,56.6,56.6,30.32,West,259,11.0,12.4,100,0.00,,,-99.99,VWS V12.07,2013-01-12 03:53:00,
2013-01-11 22:58:00,56.5,56.5,30.32,West,280,7.1,7.1,100,0.00,,,-99.99,VWS V12.07,2013-01-12 03:58:00,
2013-01-11 23:03:00,56.5,56.5,30.32,West,271,0.0,7.1,100,0.00,,,-99.99,VWS V12.07,2013-01-12 04:03:00,
2013-01-11 23:13:00,56.4,56.4,30.32,West,271,0.0,7.1,100,0.00,,,-99.99,VWS V12.07,2013-01-12 04:13:00,
2013-01-11 23:18:00,56.4,56.4,30.33,West,271,0.0,0.0,100,0.00,,,-99.99,VWS V12.07,2013-01-12 04:18:00,
2013-01-11 23:23:00,56.3,56.3,30.32,West,271,0.0,0.0,100,0.00,,,-99.99,VWS V12.07,2013-01-12 04:23:00,
2013-01-11 23:28:00,56.3,56.3,30.32,West,271,0.0,0.0,100,0.00,,,-99.99,VWS V12.07,2013-01-12 04:28:00,
2013-01-11 23:33:00,56.2,56.2,30.32,West,271,0.0,0.0,100,0.00,,,-99.99,VWS V12.07,2013-01-12 04:33:00,
2013-01-11 23:38:00,56.3,56.3,30.32,West,271,0.0,0.0,100,0.00,,,-99.99,VWS V12.07,2013-01-12 04:38:00,
2013-01-11 23:43:00,56.3,56.3,30.33,West,271,0.0,0.0,100,0.00,,,-99.99,VWS V12.07,2013-01-12 04:43:00,
2013-01-11 23:48:00,56.3,56.3,30.32,West,271,0.0,0.0,100,0.00,,,-99.99,VWS V12.07,2013-01-12 04:48:00,
2013-01-11 23:53:00,56.3,56.3,30.32,West,271,0.0,0.0,100,0.00,,,-99.99,VWS V12.07,2013-01-12 04:53:00,
2013-01-11 23:58:00,56.3,56.3,30.32,West,271,0.0,0.0,100,0.00,,,-99.99,VWS V12.07,2013-01-12 04:58:00,